Time;durP1;ratioP1;P1;durP2;ratioP2;P2;SDS_P1;SDS_P2;PMS_P1;PMS_P2;Temp;Humidity;BMP_temperature;BMP_pressure;BME280_temperature;BME280_humidity;BME280_pressure;Samples;Min_cycle;Max_cycle;Signal;HPM_P1;HPM_P2
2022/03/07 00:02:02;;;;;;;12.57;8.50;;;;;;;0.38;54.85;97121.38;5071745;28;20263;-62
2022/03/07 00:04:28;;;;;;;9.73;8.07;;;;;;;0.24;55.61;97123.72;5072132;28;20235;-61
2022/03/07 00:06:53;;;;;;;11.10;8.40;;;;;;;0.25;55.66;97130.47;5071947;28;20217;-62
2022/03/07 00:09:18;;;;;;;11.20;7.87;;;;;;;0.50;54.73;97123.69;5072130;28;20173;-62
2022/03/07 00:11:44;;;;;;;10.37;7.47;;;;;;;0.53;55.33;97126.75;5072113;28;20645;-62
2022/03/07 00:14:09;;;;;;;10.63;8.13;;;;;;;0.59;54.43;97123.56;5072106;28;20173;-61
2022/03/07 00:16:34;;;;;;;9.47;8.47;;;;;;;0.59;54.47;97127.91;5071852;28;20181;-62
2022/03/07 00:19:00;;;;;;;11.17;8.57;;;;;;;0.41;54.65;97128.78;5071937;28;22730;-61
2022/03/07 00:21:26;;;;;;;10.57;8.20;;;;;;;0.55;54.43;97122.25;5071665;28;20178;-63
2022/03/07 00:23:51;;;;;;;9.00;7.60;;;;;;;0.52;53.97;97127.69;5071862;28;20232;-61
2022/03/07 00:26:18;;;;;;;9.43;7.73;;;;;;;0.34;54.43;97122.63;5071908;28;20660;-62
2022/03/07 00:28:44;;;;;;;12.13;7.70;;;;;;;0.37;55.08;97124.91;5072369;28;20185;-61
2022/03/07 00:31:11;;;;;;;11.10;7.83;;;;;;;0.11;55.81;97123.34;5071617;28;20541;-61
2022/03/07 00:33:36;;;;;;;10.23;7.93;;;;;;;0.06;55.97;97131.50;5071820;28;20583;-60
2022/03/07 00:36:03;;;;;;;8.53;7.20;;;;;;;0.11;56.40;97131.06;5071716;28;20185;-60
2022/03/07 00:38:29;;;;;;;16.47;7.50;;;;;;;0.08;56.95;97118.47;5071946;28;20211;-61
2022/03/07 00:40:54;;;;;;;8.17;7.27;;;;;;;-0.07;57.21;97128.53;5070352;28;20204;-61
2022/03/07 00:43:21;;;;;;;10.10;7.57;;;;;;;-0.16;57.46;97132.81;5071373;28;20336;-61
2022/03/07 00:45:46;;;;;;;10.63;7.83;;;;;;;-0.08;57.71;97134.66;5071260;28;20204;-61
2022/03/07 00:48:12;;;;;;;10.37;7.57;;;;;;;-0.14;57.85;97128.34;5071106;28;20555;-60
2022/03/07 00:50:42;;;;;;;7.67;6.90;;;;;;;-0.23;58.11;97128.44;5070933;28;20192;-60
2022/03/07 00:53:09;;;;;;;9.43;7.37;;;;;;;-0.33;58.34;97127.69;5071772;28;20176;-60
2022/03/07 00:55:35;;;;;;;10.23;6.93;;;;;;;-0.29;58.28;97131.63;5071378;28;20196;-60
2022/03/07 00:58:00;;;;;;;9.00;7.03;;;;;;;-0.19;58.33;97132.31;5071782;28;20610;-61
2022/03/07 01:00:25;;;;;;;12.40;7.60;;;;;;;-0.31;58.43;97134.34;5070836;28;20239;-60
2022/03/07 01:02:51;;;;;;;8.40;7.27;;;;;;;-0.47;58.55;97122.16;5071375;28;20197;-60
2022/03/07 01:05:19;;;;;;;7.37;6.60;;;;;;;-0.53;58.85;97127.88;5071671;28;20211;-60
2022/03/07 01:07:44;;;;;;;11.00;6.97;;;;;;;-0.38;58.61;97129.91;5071207;28;20525;-60
2022/03/07 01:10:09;;;;;;;8.77;6.93;;;;;;;-0.38;59.12;97133.31;5071381;28;20181;-61
2022/03/07 01:12:35;;;;;;;8.73;6.80;;;;;;;-0.38;58.12;97132.50;5071463;28;20181;-61
2022/03/07 01:15:00;;;;;;;10.13;6.90;;;;;;;-0.23;58.09;97129.25;5071588;28;20217;-61
2022/03/07 01:17:26;;;;;;;7.70;6.40;;;;;;;-0.19;57.41;97122.03;5071237;28;20177;-61
2022/03/07 01:19:51;;;;;;;7.93;6.30;;;;;;;-0.33;57.89;97125.94;5071301;28;20312;-61
2022/03/07 01:22:16;;;;;;;7.07;6.30;;;;;;;-0.40;57.77;97129.28;5070666;28;20173;-61
2022/03/07 01:24:42;;;;;;;10.33;5.93;;;;;;;-0.56;58.13;97124.81;5071391;28;20232;-61
2022/03/07 01:27:07;;;;;;;7.67;6.87;;;;;;;-0.43;57.81;97123.47;5074077;28;20173;-62
2022/03/07 01:29:32;;;;;;;8.47;6.97;;;;;;;-0.40;57.94;97122.38;5074762;28;20207;-61
2022/03/07 01:31:58;;;;;;;6.87;6.17;;;;;;;-0.26;57.12;97116.66;5074438;28;20177;-61
2022/03/07 01:34:23;;;;;;;9.23;6.43;;;;;;;-0.22;57.12;97125.69;5075335;28;20219;-60
2022/03/07 01:36:48;;;;;;;8.80;6.40;;;;;;;-0.48;57.56;97119.72;5074749;28;20520;-61
2022/03/07 01:39:14;;;;;;;9.93;6.00;;;;;;;-0.58;57.46;97116.44;5074965;28;20618;-60
2022/03/07 01:41:39;;;;;;;7.83;6.00;;;;;;;-0.35;57.23;97114.19;5074891;28;20622;-60
2022/03/07 01:44:16;;;;;;;8.40;6.17;;;;;;;-0.31;56.96;97115.50;5074315;28;20197;-61
2022/03/07 01:46:42;;;;;;;9.13;6.50;;;;;;;-0.23;56.59;97120.72;5074648;28;20191;-61
2022/03/07 01:49:07;;;;;;;7.30;5.90;;;;;;;-0.38;56.97;97120.44;5074897;28;20185;-61
2022/03/07 01:51:33;;;;;;;8.30;5.83;;;;;;;-0.54;56.75;97117.75;5074909;28;20685;-60
2022/03/07 01:53:58;;;;;;;9.47;6.53;;;;;;;-0.43;56.89;97114.94;5074451;28;20264;-60
2022/03/07 01:56:23;;;;;;;8.57;5.90;;;;;;;-0.67;57.09;97109.59;5074058;28;20211;-63
2022/03/07 01:58:49;;;;;;;9.33;6.10;;;;;;;-0.59;57.74;97110.47;5073726;28;20227;-61
2022/03/07 02:01:14;;;;;;;7.23;5.70;;;;;;;-0.46;57.46;97097.22;5074335;28;20260;-60
2022/03/07 02:03:40;;;;;;;10.37;6.60;;;;;;;-0.35;56.58;97096.97;5074311;28;20192;-61
2022/03/07 02:06:06;;;;;;;6.90;5.77;;;;;;;-0.38;57.49;97094.69;5073467;28;20246;-61
2022/03/07 02:08:31;;;;;;;10.83;7.03;;;;;;;-0.63;57.91;97100.63;5074146;28;20169;-60
2022/03/07 02:10:57;;;;;;;7.50;6.40;;;;;;;-0.75;57.37;97100.03;5073720;28;20173;-61
2022/03/07 02:13:23;;;;;;;9.27;6.20;;;;;;;-0.87;57.46;97096.06;5072707;28;20530;-60
2022/03/07 02:15:55;;;;;;;10.83;5.83;;;;;;;-1.06;58.45;97094.44;5074495;28;20193;-63
2022/03/07 02:18:21;;;;;;;7.83;6.23;;;;;;;-1.11;58.71;97086.38;5073196;28;20189;-61
2022/03/07 02:20:51;;;;;;;7.07;5.63;;;;;;;-1.33;58.81;97097.88;5072442;28;20221;-61
2022/03/07 02:23:17;;;;;;;9.83;6.57;;;;;;;-1.35;58.26;97092.09;5073914;28;20185;-63
2022/03/07 02:25:42;;;;;;;6.97;6.07;;;;;;;-1.40;58.36;97091.72;5073637;28;20244;-63
2022/03/07 02:28:08;;;;;;;7.97;6.13;;;;;;;-1.33;58.92;97092.75;5073715;28;20181;-60
2022/03/07 02:30:33;;;;;;;8.50;6.43;;;;;;;-1.40;58.91;97084.00;5073804;28;20185;-60
2022/03/07 02:32:58;;;;;;;8.00;5.97;;;;;;;-1.31;58.73;97090.84;5073826;28;20565;-61
2022/03/07 02:35:24;;;;;;;8.47;5.60;;;;;;;-1.32;58.69;97089.22;5073909;28;20177;-60
2022/03/07 02:37:49;;;;;;;9.63;6.80;;;;;;;-1.30;59.15;97089.09;5073268;28;20204;-61
2022/03/07 02:40:15;;;;;;;7.47;6.10;;;;;;;-1.38;58.83;97083.84;5073329;28;20188;-61
2022/03/07 02:42:40;;;;;;;7.10;5.97;;;;;;;-1.49;58.59;97082.28;5062907;28;20177;-61
2022/03/07 02:45:07;;;;;;;7.20;5.97;;;;;;;-1.42;58.74;97088.47;5073789;28;20193;-61
2022/03/07 02:47:32;;;;;;;7.47;6.00;;;;;;;-1.48;58.22;97085.66;5073543;28;20256;-61
2022/03/07 02:49:57;;;;;;;8.23;6.67;;;;;;;-1.47;58.11;97087.28;5073225;28;20281;-61
2022/03/07 02:52:23;;;;;;;10.40;6.90;;;;;;;-1.46;58.29;97079.44;5073849;28;20185;-60
2022/03/07 02:54:48;;;;;;;6.87;5.90;;;;;;;-1.46;57.82;97087.16;5073653;28;20493;-61
2022/03/07 02:57:13;;;;;;;8.77;6.90;;;;;;;-1.51;58.47;97083.41;5073122;28;20260;-61
2022/03/07 02:59:39;;;;;;;8.17;6.40;;;;;;;-1.58;58.70;97084.91;5072604;28;20489;-61
2022/03/07 03:02:04;;;;;;;7.43;6.10;;;;;;;-1.55;58.73;97082.06;5072900;28;20250;-61
2022/03/07 03:04:30;;;;;;;8.20;6.70;;;;;;;-1.57;58.46;97091.69;5072561;28;20601;-61
2022/03/07 03:06:55;;;;;;;10.37;6.87;;;;;;;-1.55;58.89;97089.75;5072946;28;20268;-61
2022/03/07 03:09:21;;;;;;;8.23;6.17;;;;;;;-1.67;59.33;97087.38;5073144;28;20201;-61
2022/03/07 03:11:46;;;;;;;8.03;6.33;;;;;;;-1.65;58.87;97091.56;5072723;28;20196;-62
2022/03/07 03:14:12;;;;;;;7.80;6.13;;;;;;;-1.57;58.82;97089.13;5073107;28;20193;-61
2022/03/07 03:16:37;;;;;;;14.03;6.40;;;;;;;-1.56;58.91;97093.31;5073365;28;20208;-61
2022/03/07 03:19:02;;;;;;;9.97;6.87;;;;;;;-1.61;58.49;97093.72;5072580;28;20640;-62
2022/03/07 03:21:28;;;;;;;7.20;6.17;;;;;;;-1.55;58.50;97084.63;5073116;28;20223;-61
2022/03/07 03:23:53;;;;;;;9.70;6.57;;;;;;;-1.60;58.84;97091.94;5073100;28;20220;-63
2022/03/07 03:26:19;;;;;;;8.50;5.87;;;;;;;-1.60;58.26;97097.91;5072470;28;20252;-61
2022/03/07 03:28:44;;;;;;;8.07;6.27;;;;;;;-1.70;59.43;97095.41;5071698;28;20695;-61
2022/03/07 03:31:11;;;;;;;9.33;6.17;;;;;;;-1.59;58.19;97091.00;5073063;28;20256;-61
2022/03/07 03:33:38;;;;;;;10.17;6.70;;;;;;;-1.59;58.58;97096.16;5072516;28;20201;-61
2022/03/07 03:36:04;;;;;;;8.10;6.70;;;;;;;-1.75;58.52;97095.00;5072798;28;20201;-61
2022/03/07 03:38:29;;;;;;;8.07;6.00;;;;;;;-1.74;59.13;97098.41;5071305;28;20255;-61
2022/03/07 03:40:55;;;;;;;8.73;7.20;;;;;;;-1.72;58.67;97099.03;5072056;28;20717;-61
2022/03/07 03:43:21;;;;;;;10.17;7.03;;;;;;;-1.63;58.14;97097.41;5072821;28;20283;-61
2022/03/07 03:45:47;;;;;;;9.73;7.03;;;;;;;-1.56;58.64;97095.88;5071088;28;20204;-61
2022/03/07 03:48:12;;;;;;;11.90;7.27;;;;;;;-1.61;58.08;97096.28;5070746;28;20182;-61
2022/03/07 03:50:37;;;;;;;7.67;6.30;;;;;;;-1.75;58.77;97092.44;5072331;28;20213;-60
2022/03/07 03:53:03;;;;;;;8.07;6.87;;;;;;;-1.57;58.55;97097.63;5072458;28;20169;-61
2022/03/07 03:55:29;;;;;;;13.67;7.80;;;;;;;-1.48;58.02;97095.94;5072297;28;20211;-63
2022/03/07 03:57:54;;;;;;;10.97;7.47;;;;;;;-1.61;58.43;97101.41;5072167;28;20609;-61
2022/03/07 04:00:19;;;;;;;8.30;6.70;;;;;;;-1.57;58.61;97105.34;5071462;28;20362;-61
2022/03/07 04:02:46;;;;;;;10.03;7.10;;;;;;;-1.60;58.40;97103.03;5072287;28;20177;-61
2022/03/07 04:05:13;;;;;;;10.33;6.90;;;;;;;-1.60;57.82;97100.47;5072114;28;20197;-61
2022/03/07 04:07:39;;;;;;;10.30;6.50;;;;;;;-1.54;57.73;97105.03;5071749;28;20181;-62
2022/03/07 04:10:06;;;;;;;10.13;7.40;;;;;;;-1.75;58.24;97102.72;5072160;28;20621;-60
2022/03/07 04:12:31;;;;;;;11.57;7.17;;;;;;;-1.63;58.42;97097.41;5072230;28;20173;-60
2022/03/07 04:14:57;;;;;;;11.07;7.37;;;;;;;-1.76;58.54;97098.53;5054114;28;20247;-61
2022/03/07 04:17:22;;;;;;;8.63;7.07;;;;;;;-1.85;58.31;97094.25;5071856;28;20272;-60
2022/03/07 04:19:48;;;;;;;11.27;8.10;;;;;;;-2.01;59.01;97090.66;5071860;28;20511;-60
2022/03/07 04:22:13;;;;;;;9.90;7.33;;;;;;;-2.03;59.66;97093.38;5072045;28;20203;-61
2022/03/07 04:24:39;;;;;;;9.10;7.23;;;;;;;-2.01;59.58;97094.06;5071843;28;20193;-60
2022/03/07 04:27:05;;;;;;;9.17;7.40;;;;;;;-2.18;59.81;97099.91;5072167;28;20605;-62
2022/03/07 04:29:30;;;;;;;9.00;7.00;;;;;;;-2.13;59.88;97093.41;5071903;28;20188;-63
2022/03/07 04:31:56;;;;;;;10.63;7.43;;;;;;;-2.08;59.71;97100.69;5071868;28;20466;-62
2022/03/07 04:34:22;;;;;;;12.00;7.50;;;;;;;-2.26;60.42;97102.34;5071593;28;20173;-62
2022/03/07 04:36:48;;;;;;;8.60;7.13;;;;;;;-2.32;60.65;97101.16;5072004;28;20593;-62
2022/03/07 04:39:13;;;;;;;10.93;7.80;;;;;;;-2.28;60.96;97099.91;5071699;28;20181;-62
2022/03/07 04:41:40;;;;;;;11.30;7.03;;;;;;;-2.22;60.31;97098.56;5072200;28;20177;-62
2022/03/07 04:44:05;;;;;;;11.27;7.70;;;;;;;-2.30;60.90;97106.97;5071530;28;20197;-63
2022/03/07 04:46:31;;;;;;;11.33;7.53;;;;;;;-2.31;60.61;97107.09;5071801;28;20173;-62
2022/03/07 04:48:57;;;;;;;10.57;7.67;;;;;;;-2.33;61.45;97107.22;5071676;28;20483;-62
2022/03/07 04:51:22;;;;;;;11.30;8.00;;;;;;;-2.24;61.08;97119.25;5071501;28;20534;-62
2022/03/07 04:53:47;;;;;;;11.77;8.10;;;;;;;-2.28;61.42;97119.63;5072018;28;20185;-62
2022/03/07 04:56:13;;;;;;;10.00;7.23;;;;;;;-2.21;60.77;97120.72;5071540;28;20242;-62
2022/03/07 04:58:39;;;;;;;8.87;7.93;;;;;;;-2.27;61.26;97122.06;5071143;28;20182;-64
2022/03/07 05:01:04;;;;;;;9.90;7.73;;;;;;;-2.35;61.55;97124.53;5073016;28;20668;-62
2022/03/07 05:03:30;;;;;;;10.87;8.57;;;;;;;-2.38;61.58;97127.38;5074616;28;20188;-62
2022/03/07 05:05:56;;;;;;;11.50;7.53;;;;;;;-2.32;61.70;97119.13;5075235;28;20189;-63
2022/03/07 05:08:21;;;;;;;10.33;7.33;;;;;;;-2.19;61.38;97122.19;5075479;28;20208;-62
2022/03/07 05:10:47;;;;;;;11.60;7.53;;;;;;;-2.24;61.81;97126.13;5075335;28;20193;-62
2022/03/07 05:13:12;;;;;;;13.47;8.60;;;;;;;-2.44;62.63;97127.09;5075667;28;20231;-62
2022/03/07 05:15:38;;;;;;;10.37;7.60;;;;;;;-2.38;62.26;97127.38;5074289;28;20276;-62
2022/03/07 05:18:04;;;;;;;10.60;7.97;;;;;;;-2.28;62.39;97125.59;5075764;28;20185;-62
2022/03/07 05:20:30;;;;;;;13.23;8.83;;;;;;;-2.46;63.11;97134.13;5075531;28;20288;-62
2022/03/07 05:22:56;;;;;;;12.37;9.00;;;;;;;-2.49;63.66;97132.66;5073085;28;20545;-62
2022/03/07 05:25:21;;;;;;;16.13;9.03;;;;;;;-2.51;63.13;97132.00;5075306;28;20197;-62
2022/03/07 05:27:47;;;;;;;13.03;8.60;;;;;;;-2.57;64.23;97132.53;5075061;28;20528;-62
2022/03/07 05:30:16;;;;;;;12.13;8.63;;;;;;;-2.62;64.33;97132.91;5074831;28;20284;-62
2022/03/07 05:32:46;;;;;;;9.70;8.50;;;;;;;-2.48;64.08;97134.28;5074614;28;20174;-62
2022/03/07 05:35:13;;;;;;;11.57;8.47;;;;;;;-2.56;64.22;97136.69;5075144;28;20569;-62
2022/03/07 05:37:39;;;;;;;13.90;9.30;;;;;;;-2.52;64.34;97138.06;5075303;28;20205;-62
2022/03/07 05:40:06;;;;;;;11.63;8.37;;;;;;;-2.42;63.48;97144.00;5074802;28;20610;-62
2022/03/07 05:42:36;;;;;;;13.73;9.03;;;;;;;-2.40;63.76;97138.72;5074656;28;20173;-62
2022/03/07 05:45:02;;;;;;;13.67;8.27;;;;;;;-2.45;63.91;97146.03;5075068;28;20201;-62
2022/03/07 05:47:27;;;;;;;13.63;8.97;;;;;;;-2.55;64.70;97146.03;5074545;28;20181;-62
2022/03/07 05:49:53;;;;;;;13.03;8.93;;;;;;;-2.47;64.72;97147.91;5074754;28;20192;-62
2022/03/07 05:52:18;;;;;;;10.80;8.10;;;;;;;-2.58;65.07;97147.13;5074548;28;20179;-62
2022/03/07 05:54:44;;;;;;;10.13;7.87;;;;;;;-2.46;64.58;97152.09;5074974;28;20182;-63
2022/03/07 05:57:09;;;;;;;14.03;8.93;;;;;;;-2.51;64.55;97150.72;5073521;28;20174;-63
2022/03/07 05:59:35;;;;;;;11.57;8.03;;;;;;;-2.47;64.60;97153.03;5074555;28;20650;-62
2022/03/07 06:02:00;;;;;;;11.30;8.23;;;;;;;-2.43;64.24;97147.50;5074257;28;20201;-62
2022/03/07 06:04:26;;;;;;;14.50;9.40;;;;;;;-2.56;64.57;97145.19;5074709;28;20201;-62
2022/03/07 06:06:52;;;;;;;17.23;8.93;;;;;;;-2.48;65.21;97149.66;5074806;28;20634;-62
2022/03/07 06:09:17;;;;;;;9.97;7.50;;;;;;;-2.48;64.75;97151.41;5074236;28;20174;-65
2022/03/07 06:11:42;;;;;;;13.80;8.70;;;;;;;-2.46;64.56;97160.63;5073718;28;20660;-62
2022/03/07 06:14:08;;;;;;;13.03;9.03;;;;;;;-2.43;64.97;97159.50;5073051;28;20185;-62
2022/03/07 06:16:34;;;;;;;14.23;8.53;;;;;;;-2.47;64.86;97153.03;5073817;28;20227;-62
2022/03/07 06:18:59;;;;;;;11.73;9.00;;;;;;;-2.37;64.51;97152.09;5074266;28;20276;-62
2022/03/07 06:21:24;;;;;;;12.87;8.43;;;;;;;-2.25;65.21;97157.88;5074039;28;20166;-62
2022/03/07 06:23:50;;;;;;;12.07;7.50;;;;;;;-2.11;64.02;97149.72;5073797;28;20177;-63
2022/03/07 06:26:15;;;;;;;9.07;7.77;;;;;;;-2.16;63.80;97149.34;5073986;28;20300;-63
2022/03/07 06:28:40;;;;;;;9.03;7.67;;;;;;;-1.91;62.63;97142.81;5074203;28;20185;-62
2022/03/07 06:31:06;;;;;;;9.57;8.00;;;;;;;-2.06;63.20;97152.69;5072782;28;20189;-62
2022/03/07 06:33:31;;;;;;;9.10;7.60;;;;;;;-2.13;63.72;97151.66;5073963;28;20177;-62
2022/03/07 06:35:57;;;;;;;9.30;7.60;;;;;;;-2.00;63.88;97144.44;5074332;28;20196;-62
2022/03/07 06:38:22;;;;;;;11.33;8.03;;;;;;;-1.89;63.33;97148.59;5072936;28;20284;-62
2022/03/07 06:40:47;;;;;;;11.70;8.23;;;;;;;-1.93;63.44;97152.41;5073694;28;20177;-62
2022/03/07 06:43:13;;;;;;;10.13;7.87;;;;;;;-1.93;63.61;97150.63;5073329;28;20193;-61
2022/03/07 06:45:39;;;;;;;10.53;7.70;;;;;;;-1.93;63.53;97153.22;5073255;28;20203;-61
2022/03/07 06:48:05;;;;;;;12.57;8.47;;;;;;;-2.00;63.44;97159.03;5072476;28;20184;-61
2022/03/07 06:50:31;;;;;;;11.60;8.57;;;;;;;-2.05;63.78;97159.44;5072570;28;20479;-61
2022/03/07 06:52:57;;;;;;;10.87;8.33;;;;;;;-2.18;63.74;97167.47;5073755;28;20192;-61
2022/03/07 06:55:22;;;;;;;12.17;8.63;;;;;;;-2.29;64.63;97159.94;5073414;28;20737;-62
2022/03/07 06:57:47;;;;;;;11.07;8.60;;;;;;;-2.08;63.81;97156.34;5072946;28;20223;-61
2022/03/07 07:00:15;;;;;;;14.17;7.80;;;;;;;-2.02;64.08;97166.09;5073435;28;20182;-61
2022/03/07 07:02:41;;;;;;;9.40;7.67;;;;;;;-1.96;63.98;97158.63;5073008;28;20197;-62
2022/03/07 07:05:08;;;;;;;11.40;7.43;;;;;;;-1.73;63.39;97165.03;5073647;28;20221;-63
2022/03/07 07:07:34;;;;;;;9.60;7.23;;;;;;;-1.51;62.58;97175.91;5072358;28;20641;-62
2022/03/07 07:09:59;;;;;;;11.70;7.73;;;;;;;-1.25;61.61;97166.59;5073537;28;20219;-62
2022/03/07 07:12:25;;;;;;;14.67;7.83;;;;;;;-1.67;62.23;97178.28;5072001;28;20181;-62
2022/03/07 07:14:50;;;;;;;11.90;8.03;;;;;;;-1.61;63.36;97168.22;5072832;28;20180;-64
2022/03/07 07:17:17;;;;;;;11.03;7.57;;;;;;;-1.31;62.16;97173.13;5072377;28;20264;-62
2022/03/07 07:19:43;;;;;;;12.03;7.73;;;;;;;-1.16;61.80;97181.13;5072999;28;20252;-62
2022/03/07 07:22:08;;;;;;;10.60;7.23;;;;;;;-1.27;61.71;97183.91;5073134;28;20181;-62
2022/03/07 07:24:34;;;;;;;14.10;8.47;;;;;;;-1.35;63.19;97186.41;5072841;28;20276;-65
2022/03/07 07:26:59;;;;;;;11.90;8.20;;;;;;;-0.61;63.04;97189.59;5072824;28;20181;-64
2022/03/07 07:29:25;;;;;;;14.15;9.73;;;;;;;-0.76;60.28;97185.91;5071755;28;20376;-63
2022/03/07 07:31:53;;;;;;;12.25;9.68;;;;;;;-0.66;59.74;97189.22;5071695;28;20388;-64
2022/03/07 07:34:20;;;;;;;12.10;9.75;;;;;;;-0.81;59.78;97193.25;5071748;28;20394;-63
2022/03/07 07:36:46;;;;;;;11.50;7.60;;;;;;;-0.52;59.46;97188.72;5071971;28;20669;-63
2022/03/07 07:39:11;;;;;;;9.40;7.60;;;;;;;-0.45;59.20;97196.66;5072696;28;20212;-62
2022/03/07 07:41:37;;;;;;;10.47;7.50;;;;;;;-0.64;58.98;97196.81;5071816;28;20521;-62
2022/03/07 07:44:03;;;;;;;11.00;7.47;;;;;;;-0.64;59.31;97199.38;5072327;28;20205;-63
2022/03/07 07:46:28;;;;;;;10.17;7.53;;;;;;;-0.74;59.50;97198.63;5071950;28;20177;-63
2022/03/07 07:48:53;;;;;;;8.33;7.03;;;;;;;-0.92;60.53;97209.72;5071908;28;20183;-64
2022/03/07 07:51:19;;;;;;;12.03;7.73;;;;;;;-0.66;59.63;97209.00;5071336;28;20173;-62
2022/03/07 07:53:45;;;;;;;14.87;8.33;;;;;;;-0.69;59.87;97212.69;5069994;28;20200;-62
2022/03/07 07:56:10;;;;;;;11.20;7.93;;;;;;;-0.60;59.47;97208.41;5071401;28;20271;-62
2022/03/07 07:58:36;;;;;;;12.03;7.50;;;;;;;-0.54;59.75;97207.84;5070720;28;20249;-64
2022/03/07 08:01:02;;;;;;;10.33;7.87;;;;;;;-0.35;59.34;97212.03;5072142;28;20176;-63
2022/03/07 08:03:27;;;;;;;10.20;7.27;;;;;;;-0.19;58.60;97207.81;5072453;28;20625;-62
2022/03/07 08:05:53;;;;;;;11.83;7.17;;;;;;;-0.04;57.94;97215.81;5072279;28;20343;-62
2022/03/07 08:08:18;;;;;;;9.47;7.13;;;;;;;-0.19;57.93;97223.28;5072579;28;20260;-62
2022/03/07 08:10:44;;;;;;;12.13;7.73;;;;;;;-0.32;57.79;97219.44;5072627;28;20189;-62
2022/03/07 08:13:10;;;;;;;9.63;7.53;;;;;;;-0.24;57.79;97234.97;5071892;28;20251;-63
2022/03/07 08:15:36;;;;;;;9.43;6.47;;;;;;;-0.21;57.78;97229.53;5071986;28;20217;-64
2022/03/07 08:18:01;;;;;;;12.80;7.93;;;;;;;-0.25;58.08;97236.75;5072496;28;20198;-62
2022/03/07 08:20:29;;;;;;;9.27;6.90;;;;;;;-0.12;57.32;97228.66;5071878;28;20561;-62
2022/03/07 08:22:55;;;;;;;11.50;7.30;;;;;;;-0.25;57.63;97239.31;5072194;28;20178;-62
2022/03/07 08:25:21;;;;;;;11.80;7.57;;;;;;;-0.19;57.97;97233.59;5071971;28;20247;-64
2022/03/07 08:27:48;;;;;;;9.37;7.47;;;;;;;0.03;56.40;97234.88;5070794;28;20193;-63
2022/03/07 08:30:16;;;;;;;11.30;6.90;;;;;;;-0.14;56.82;97233.13;5070165;28;20181;-62
2022/03/07 08:32:41;;;;;;;9.13;6.70;;;;;;;0.13;56.08;97234.78;5071609;28;20230;-63
2022/03/07 08:35:09;;;;;;;11.63;7.30;;;;;;;0.21;55.77;97233.09;5071657;28;20181;-62
2022/03/07 08:37:35;;;;;;;11.47;7.47;;;;;;;0.33;55.36;97241.38;5071745;28;20181;-63
2022/03/07 08:40:02;;;;;;;13.03;7.20;;;;;;;0.24;55.82;97239.69;5071852;28;20248;-63
2022/03/07 08:42:28;;;;;;;8.50;6.90;;;;;;;-0.03;56.67;97241.44;5071527;28;20181;-63
2022/03/07 08:44:53;;;;;;;10.20;7.40;;;;;;;0.07;56.14;97250.84;5071385;28;20197;-62
2022/03/07 08:47:19;;;;;;;10.43;7.53;;;;;;;0.12;55.58;97246.84;5071603;28;20204;-62
2022/03/07 08:49:45;;;;;;;10.97;7.70;;;;;;;0.14;54.91;97241.56;5071153;28;20672;-63
2022/03/07 08:52:15;;;;;;;8.57;7.00;;;;;;;0.07;55.56;97243.09;5071298;28;20173;-63
2022/03/07 08:54:41;;;;;;;10.13;7.77;;;;;;;0.32;54.44;97245.72;5071685;28;20189;-63
2022/03/07 08:57:06;;;;;;;10.43;7.70;;;;;;;0.27;54.06;97241.97;5071704;28;20197;-64
2022/03/07 08:59:32;;;;;;;9.37;7.40;;;;;;;0.22;54.25;97242.44;5071068;28;20212;-63
2022/03/07 09:01:57;;;;;;;10.20;8.27;;;;;;;0.33;54.05;97242.19;5069487;28;20196;-63
2022/03/07 09:04:24;;;;;;;9.17;7.40;;;;;;;0.47;53.89;97243.38;5064096;28;20210;-63
2022/03/07 09:06:51;;;;;;;9.93;7.90;;;;;;;0.51;52.73;97242.13;5071132;28;20246;-63
2022/03/07 09:09:16;;;;;;;8.47;7.00;;;;;;;0.70;52.01;97244.50;5071427;28;20212;-63
2022/03/07 09:11:42;;;;;;;8.87;6.97;;;;;;;0.90;52.21;97244.25;5071392;28;20204;-64
2022/03/07 09:14:07;;;;;;;10.90;7.57;;;;;;;0.71;51.58;97251.28;5069071;28;20185;-64
2022/03/07 09:16:33;;;;;;;10.83;7.83;;;;;;;0.47;51.42;97256.28;5069722;28;20283;-63
2022/03/07 09:18:58;;;;;;;12.07;7.70;;;;;;;0.44;52.22;97258.38;5070968;28;20173;-63
2022/03/07 09:21:23;;;;;;;10.67;7.67;;;;;;;0.31;52.86;97254.41;5071128;28;20247;-63
2022/03/07 09:23:49;;;;;;;10.30;8.10;;;;;;;0.28;53.28;97257.28;5071639;28;20522;-63
2022/03/07 09:26:15;;;;;;;9.40;7.27;;;;;;;0.31;53.39;97259.56;5055367;28;20213;-63
2022/03/07 09:28:40;;;;;;;10.37;6.63;;;;;;;0.26;52.62;97258.41;5071243;28;20177;-63
2022/03/07 09:31:09;;;;;;;13.80;7.90;;;;;;;0.13;53.32;97258.78;5071202;28;20182;-63
2022/03/07 09:33:35;;;;;;;8.77;6.90;;;;;;;0.09;53.46;97252.31;5071429;28;20185;-63
2022/03/07 09:36:02;;;;;;;8.67;6.70;;;;;;;0.34;52.87;97253.28;5071531;28;20181;-63
2022/03/07 09:38:28;;;;;;;12.13;7.90;;;;;;;0.33;52.60;97259.44;5070893;28;20652;-63
2022/03/07 09:40:54;;;;;;;12.57;7.70;;;;;;;0.52;52.36;97263.56;5069878;28;20197;-63
2022/03/07 09:43:20;;;;;;;8.73;7.47;;;;;;;0.48;52.99;97259.66;5071279;28;20260;-63
2022/03/07 09:45:45;;;;;;;11.17;7.90;;;;;;;0.71;52.81;97266.75;5071556;28;20284;-63
2022/03/07 09:48:12;;;;;;;13.70;8.10;;;;;;;0.63;53.12;97260.72;5074724;28;20211;-64
2022/03/07 09:50:42;;;;;;;11.97;7.57;;;;;;;0.55;54.00;97260.69;5056379;28;20196;-63
2022/03/07 09:53:08;;;;;;;9.40;7.80;;;;;;;0.65;53.43;97266.53;5074171;28;20174;-63
2022/03/07 09:55:35;;;;;;;11.90;7.13;;;;;;;0.52;53.55;97271.28;5074055;28;20185;-64
2022/03/07 09:58:00;;;;;;;14.80;8.40;;;;;;;0.86;53.22;97256.66;5074261;28;20239;-62
2022/03/07 10:00:26;;;;;;;8.50;6.90;;;;;;;0.92;52.60;97271.53;5073592;28;20214;-62
2022/03/07 10:02:56;;;;;;;11.27;8.00;;;;;;;0.82;52.90;97263.09;5074502;28;20641;-62
2022/03/07 10:05:25;;;;;;;10.93;7.67;;;;;;;0.68;53.50;97261.88;5074282;28;20200;-62
2022/03/07 10:07:51;;;;;;;11.23;8.30;;;;;;;0.76;52.73;97266.28;5074127;28;20173;-62
2022/03/07 10:10:16;;;;;;;11.07;7.70;;;;;;;0.89;53.20;97261.53;5073966;28;20498;-62
2022/03/07 10:12:49;;;;;;;13.20;8.17;;;;;;;1.13;52.18;97266.78;5073330;28;20185;-62
2022/03/07 10:15:17;;;;;;;11.27;8.23;;;;;;;1.73;51.41;97281.31;5074357;28;20177;-62
2022/03/07 10:17:52;;;;;;;8.70;7.73;;;;;;;1.67;51.14;97275.78;5074464;28;20630;-63
2022/03/07 10:20:20;;;;;;;12.23;7.53;;;;;;;1.97;51.20;97276.16;5073474;28;20246;-64
2022/03/07 10:22:51;;;;;;;11.03;8.03;;;;;;;2.05;50.89;97282.16;5072844;28;20234;-63
2022/03/07 10:25:22;;;;;;;12.03;8.47;;;;;;;1.75;50.90;97272.44;5063401;28;20741;-65
2022/03/07 10:27:49;;;;;;;11.37;8.10;;;;;;;1.01;52.87;97285.25;5067368;28;20165;-64
2022/03/07 10:30:21;;;;;;;15.03;9.17;;;;;;;1.24;52.11;97284.56;5073747;28;20234;-64
2022/03/07 10:32:57;;;;;;;9.73;7.37;;;;;;;1.72;51.16;97285.69;5074417;28;20256;-63
2022/03/07 10:35:26;;;;;;;9.40;7.90;;;;;;;2.06;50.00;97273.41;5074286;28;20184;-63
2022/03/07 10:38:05;;;;;;;12.70;7.97;;;;;;;1.96;49.94;97277.13;5073859;28;20173;-64
2022/03/07 10:40:33;;;;;;;9.40;7.70;;;;;;;2.27;49.77;97277.31;5071930;28;20272;-64
2022/03/07 10:43:04;;;;;;;8.40;7.50;;;;;;;1.91;50.21;97282.78;5072673;28;20277;-66
2022/03/07 10:45:30;;;;;;;9.20;7.53;;;;;;;1.87;50.16;97278.09;5073442;28;20193;-64
2022/03/07 10:48:01;;;;;;;11.07;8.07;;;;;;;1.77;49.92;97290.38;5073365;28;20182;-64
2022/03/07 10:50:28;;;;;;;9.43;7.97;;;;;;;1.76;51.23;97278.41;5068940;28;20600;-63
2022/03/07 10:53:00;;;;;;;9.90;8.20;;;;;;;1.63;50.36;97274.50;5071677;28;20188;-63
2022/03/07 10:55:27;;;;;;;11.70;8.40;;;;;;;1.41;51.23;97272.50;5072947;28;20174;-62
2022/03/07 10:58:14;;;;;;;8.77;7.70;;;;;;;1.63;51.32;97276.28;5072466;28;20209;-63
2022/03/07 11:00:50;;;;;;;9.33;7.73;;;;;;;1.64;50.61;97270.97;5072712;28;20515;-64
2022/03/07 11:03:18;;;;;;;11.47;8.13;;;;;;;1.73;51.00;97264.00;5073074;28;20283;-64
2022/03/07 11:05:44;;;;;;;12.37;8.80;;;;;;;1.80;49.92;97264.19;5073726;28;20201;-63
2022/03/07 11:08:10;;;;;;;12.40;7.83;;;;;;;2.04;50.46;97262.44;5073077;28;20519;-64
2022/03/07 11:10:36;;;;;;;10.73;7.70;;;;;;;2.55;48.75;97263.06;5072355;28;20259;-65
2022/03/07 11:13:02;;;;;;;12.93;8.77;;;;;;;3.06;47.52;97248.03;5070908;28;20186;-64
2022/03/07 11:15:28;;;;;;;12.57;7.70;;;;;;;3.07;47.27;97265.97;5073139;28;20638;-64
2022/03/07 11:17:54;;;;;;;9.63;7.83;;;;;;;2.68;48.01;97255.56;5072397;28;20207;-63
2022/03/07 11:20:20;;;;;;;14.00;8.63;;;;;;;2.62;48.78;97247.69;5071431;28;20735;-63
2022/03/07 11:22:45;;;;;;;9.77;7.40;;;;;;;2.61;48.16;97243.47;5072861;28;20180;-63
2022/03/07 11:25:15;;;;;;;9.87;7.87;;;;;;;2.91;47.75;97247.91;5073062;28;20200;-62
2022/03/07 11:27:42;;;;;;;10.33;7.27;;;;;;;2.98;46.73;97246.28;5073107;28;20585;-66